Time;durP1;ratioP1;P1;durP2;ratioP2;P2;SDS_P1;SDS_P2;PMS_P1;PMS_P2;Temp;Humidity;BMP_temperature;BMP_pressure;BME280_temperature;BME280_humidity;BME280_pressure;Samples;Min_cycle;Max_cycle;Signal;HPM_P1;HPM_P2
2024/01/28 00:00:35;;;;;;;0.30;0.10;;;;;;;-0.92;95.92;102114.09;5054967;28;20489;-48
2024/01/28 00:03:03;;;;;;;0.20;0.20;;;;;;;-0.81;96.08;102111.09;5045162;28;21070;-48
2024/01/28 00:05:29;;;;;;;0.20;0.10;;;;;;;-0.84;95.42;102110.94;5052653;28;20451;-48
2024/01/28 00:07:56;;;;;;;0.20;0.10;;;;;;;-0.70;95.30;102102.03;5053652;28;20459;-48
2024/01/28 00:10:22;;;;;;;0.20;0.10;;;;;;;-0.72;95.60;102098.44;5040638;28;20489;-48
2024/01/28 00:12:49;;;;;;;0.20;0.10;;;;;;;-0.55;95.99;102100.09;5042876;28;20539;-48
2024/01/28 00:15:15;;;;;;;0.20;0.10;;;;;;;-0.69;95.95;102095.97;5033906;28;20455;-48
2024/01/28 00:17:42;;;;;;;0.20;0.10;;;;;;;-0.76;95.74;102093.91;5033911;28;20482;-48
2024/01/28 00:20:09;;;;;;;0.20;0.10;;;;;;;-0.77;95.58;102097.34;5017611;28;20458;-47
2024/01/28 00:22:36;;;;;;;0.20;0.10;;;;;;;-0.77;95.53;102094.75;5042044;28;20487;-49
2024/01/28 00:25:02;;;;;;;0.20;0.10;;;;;;;-0.84;95.34;102087.44;5038200;28;20458;-48
2024/01/28 00:27:29;;;;;;;0.20;0.10;;;;;;;-0.76;95.33;102081.75;5053287;28;20474;-48
2024/01/28 00:29:55;;;;;;;0.20;0.10;;;;;;;-0.76;94.92;102088.69;5048837;28;20459;-47
2024/01/28 00:32:22;;;;;;;0.20;0.10;;;;;;;-0.83;94.71;102082.28;5033568;28;20456;-48
2024/01/28 00:34:48;;;;;;;0.20;0.10;;;;;;;-1.00;95.02;102081.50;5051586;28;20451;-48
2024/01/28 00:37:17;;;;;;;0.20;0.10;;;;;;;-0.81;95.08;102085.88;5053398;28;20478;-48
2024/01/28 00:39:43;;;;;;;0.20;0.10;;;;;;;-0.99;95.36;102080.69;5059417;28;20454;-48
2024/01/28 00:42:10;;;;;;;0.50;0.50;;;;;;;-1.05;94.86;102071.69;5060666;28;20461;-48
2024/01/28 00:44:37;;;;;;;0.20;0.10;;;;;;;-0.98;95.17;102078.97;5034743;28;20455;-48
2024/01/28 00:47:03;;;;;;;0.20;0.10;;;;;;;-1.05;95.33;102072.56;5063657;28;20548;-48
2024/01/28 00:49:30;;;;;;;0.20;0.10;;;;;;;-1.02;94.84;102077.03;5033889;28;20502;-48
2024/01/28 00:51:57;;;;;;;1.17;1.17;;;;;;;-1.12;94.76;102066.97;5045703;28;20461;-48
2024/01/28 00:54:25;;;;;;;0.20;0.10;;;;;;;-1.27;94.55;102078.47;5034512;28;20493;-48
2024/01/28 00:56:56;;;;;;;0.20;0.10;;;;;;;-1.35;94.66;102065.91;5039404;28;20536;-48
2024/01/28 00:59:23;;;;;;;0.20;0.10;;;;;;;-1.28;94.77;102063.66;5021671;28;20454;-48
2024/01/28 01:01:49;;;;;;;0.20;0.10;;;;;;;-1.39;94.90;102066.56;5031305;28;20533;-48
2024/01/28 01:04:15;;;;;;;2.73;2.53;;;;;;;-1.35;94.21;102063.31;5052143;28;20896;-48
2024/01/28 01:06:43;;;;;;;0.20;0.10;;;;;;;-1.40;94.62;102056.94;5038432;28;20490;-47
2024/01/28 01:09:10;;;;;;;0.20;0.10;;;;;;;-1.53;94.38;102055.47;5052015;28;20447;-46
2024/01/28 01:11:37;;;;;;;0.20;0.10;;;;;;;-1.55;94.14;102054.50;5038893;28;20971;-47
2024/01/28 01:14:04;;;;;;;0.20;0.10;;;;;;;-1.60;94.24;102051.66;5052114;28;20478;-46
2024/01/28 01:16:30;;;;;;;0.20;0.10;;;;;;;-1.57;94.48;102051.81;5038611;28;20467;-47
2024/01/28 01:18:57;;;;;;;0.20;0.10;;;;;;;-1.55;95.04;102054.50;5033024;28;20494;-46
2024/01/28 01:21:23;;;;;;;0.20;0.10;;;;;;;-1.62;94.87;102047.22;5047525;28;20461;-46
2024/01/28 01:23:50;;;;;;;0.20;0.10;;;;;;;-1.61;94.16;102043.78;5044280;28;20499;-46
2024/01/28 01:26:16;;;;;;;0.20;0.10;;;;;;;-1.64;94.69;102041.94;5047691;28;20494;-48
2024/01/28 01:28:43;;;;;;;0.20;0.10;;;;;;;-1.60;94.74;102029.94;5052961;28;20443;-46
2024/01/28 01:31:09;;;;;;;0.20;0.10;;;;;;;-1.69;94.74;102034.69;5039201;28;20463;-47
2024/01/28 01:33:36;;;;;;;0.80;0.77;;;;;;;-1.60;94.42;102020.38;5052368;28;20486;-47
2024/01/28 01:36:05;;;;;;;0.20;0.10;;;;;;;-1.44;94.50;102027.22;5038212;28;20478;-47
2024/01/28 01:38:31;;;;;;;0.20;0.10;;;;;;;-1.55;93.83;102015.38;5051978;28;20508;-46
2024/01/28 01:40:58;;;;;;;0.20;0.10;;;;;;;-1.58;93.58;102010.03;5044334;28;20475;-47
2024/01/28 01:43:25;;;;;;;1.37;1.37;;;;;;;-1.47;94.03;102011.44;5041896;28;20490;-47
2024/01/28 01:45:54;;;;;;;0.20;0.10;;;;;;;-1.52;93.62;102003.38;5051539;28;20501;-48
2024/01/28 01:49:04;;;;;;;0.20;0.10;;;;;;;-1.59;93.32;102006.53;5031674;28;20453;-47
2024/01/28 01:51:38;;;;;;;0.20;0.10;;;;;;;-1.56;94.00;102014.50;5031504;28;20443;-47
2024/01/28 01:54:19;;;;;;;0.20;0.10;;;;;;;-1.43;94.00;102017.69;5048172;28;20459;-47
2024/01/28 01:56:51;;;;;;;0.20;0.10;;;;;;;-1.58;93.59;102016.13;5051319;28;20546;-48
2024/01/28 01:59:32;;;;;;;;;;;;;;;;;;;;;
2024/01/28 02:02:10;;;;;;;4.90;4.63;;;;;;;-1.58;93.96;102023.06;5048966;28;20533;-48
2024/01/28 02:04:38;;;;;;;0.20;0.10;;;;;;;-1.57;94.46;102023.13;5041094;28;20495;-47
2024/01/28 02:07:11;;;;;;;0.20;0.10;;;;;;;-1.57;94.87;102024.84;5046869;28;20486;-47
2024/01/28 02:09:39;;;;;;;0.20;0.10;;;;;;;-1.60;94.44;102025.59;5044652;28;20454;-49
2024/01/28 02:12:06;;;;;;;0.20;0.10;;;;;;;-1.65;94.70;102018.34;5052360;28;20963;-49
2024/01/28 02:14:33;;;;;;;0.20;0.10;;;;;;;-1.72;94.63;102018.91;5052695;28;20461;-49
2024/01/28 02:17:00;;;;;;;0.20;0.10;;;;;;;-1.60;94.84;102015.19;5038718;28;20890;-49
2024/01/28 02:19:27;;;;;;;0.20;0.10;;;;;;;-1.55;94.80;102011.06;5021776;28;20447;-49
2024/01/28 02:21:54;;;;;;;0.20;0.10;;;;;;;-1.43;94.97;102012.47;5031461;28;20522;-49
2024/01/28 02:24:20;;;;;;;0.20;0.10;;;;;;;-1.57;94.73;101999.69;5044477;28;21025;-48
2024/01/28 02:26:47;;;;;;;0.20;0.10;;;;;;;-1.58;94.37;102010.03;5027391;28;20467;-49
2024/01/28 02:29:13;;;;;;;0.20;0.10;;;;;;;-1.62;94.44;102006.41;5031813;28;20490;-49
2024/01/28 02:31:40;;;;;;;0.20;0.10;;;;;;;-1.74;94.34;102007.50;5048217;28;20479;-49
2024/01/28 02:34:06;;;;;;;0.20;0.10;;;;;;;-1.73;94.61;102010.19;5035129;28;20447;-49
2024/01/28 02:36:33;;;;;;;0.20;0.10;;;;;;;-1.67;94.59;102001.75;5055306;28;20466;-49
2024/01/28 02:38:59;;;;;;;0.20;0.10;;;;;;;-1.80;94.40;102014.19;5041857;28;20462;-49
2024/01/28 02:41:26;;;;;;;0.20;0.10;;;;;;;-1.83;94.19;102005.34;5042068;28;20533;-49
2024/01/28 02:43:55;;;;;;;0.20;0.10;;;;;;;-1.79;94.77;102007.25;5041287;28;20488;-48
2024/01/28 02:46:22;;;;;;;0.20;0.10;;;;;;;-1.93;94.93;102013.50;5054149;28;20496;-49
2024/01/28 02:48:48;;;;;;;0.20;0.10;;;;;;;-1.81;94.62;102003.69;5054750;28;21307;-49
2024/01/28 02:51:15;;;;;;;0.20;0.10;;;;;;;-1.88;94.64;101992.09;5055269;28;20860;-49
2024/01/28 02:53:42;;;;;;;0.20;0.10;;;;;;;-1.95;94.05;101990.00;5053296;28;20455;-49
2024/01/28 02:56:08;;;;;;;0.20;0.10;;;;;;;-1.81;94.89;101980.25;5055612;28;20509;-49
2024/01/28 02:58:35;;;;;;;0.20;0.10;;;;;;;-1.60;95.08;101976.06;5041990;28;20530;-49
2024/01/28 03:01:01;;;;;;;0.20;0.10;;;;;;;-1.71;94.21;101984.19;5055165;28;20581;-49
2024/01/28 03:03:30;;;;;;;0.20;0.10;;;;;;;-1.71;94.92;101979.88;5041521;28;20487;-49
2024/01/28 03:05:56;;;;;;;0.20;0.10;;;;;;;-1.86;94.87;101987.84;5055994;28;20553;-49
2024/01/28 03:08:23;;;;;;;0.20;0.10;;;;;;;-1.78;94.36;101990.84;5054468;28;20874;-49
2024/01/28 03:10:49;;;;;;;0.20;0.10;;;;;;;-1.74;94.65;101992.75;5054646;28;20900;-49
2024/01/28 03:13:16;;;;;;;0.20;0.10;;;;;;;-1.80;95.00;101997.66;5041708;28;20551;-49
2024/01/28 03:15:43;;;;;;;0.20;0.10;;;;;;;-1.80;95.09;101995.94;5046466;28;20448;-48
2024/01/28 03:18:12;;;;;;;0.20;0.10;;;;;;;-1.77;94.91;101995.22;5049842;28;20455;-49
2024/01/28 03:20:38;;;;;;;0.20;0.10;;;;;;;-1.67;95.00;101996.53;5046280;28;20462;-49
2024/01/28 03:23:05;;;;;;;0.20;0.10;;;;;;;-1.71;94.61;101997.22;5037004;28;20932;-49
2024/01/28 03:25:31;;;;;;;0.20;0.10;;;;;;;-1.90;94.50;101998.06;5054617;28;20958;-48
2024/01/28 03:27:58;;;;;;;0.20;0.10;;;;;;;-1.88;93.95;102009.44;5041500;28;20447;-48
2024/01/28 03:30:24;;;;;;;0.20;0.10;;;;;;;-1.96;93.31;102002.94;5054777;28;20512;-48
2024/01/28 03:32:51;;;;;;;0.20;0.10;;;;;;;-2.01;93.36;101996.63;5051859;28;20504;-49
2024/01/28 03:35:17;;;;;;;1.60;1.60;;;;;;;-2.17;93.28;101998.47;5043707;28;20450;-49
2024/01/28 03:37:46;;;;;;;0.20;0.10;;;;;;;-2.22;93.21;101988.63;5051041;28;20538;-49
2024/01/28 03:40:13;;;;;;;0.20;0.10;;;;;;;-2.29;93.25;101997.84;5044371;28;20439;-49
2024/01/28 03:42:40;;;;;;;0.20;0.10;;;;;;;-2.13;93.97;102004.72;5039648;28;20455;-49
2024/01/28 03:45:08;;;;;;;0.20;0.10;;;;;;;-2.16;94.16;101989.84;5053607;28;20498;-49
2024/01/28 03:47:36;;;;;;;0.20;0.10;;;;;;;-2.22;93.62;101991.22;5052469;28;20470;-49
2024/01/28 03:50:06;;;;;;;0.20;0.10;;;;;;;-2.20;93.63;101984.38;5053667;28;20451;-49
2024/01/28 03:52:32;;;;;;;0.20;0.10;;;;;;;-2.23;94.15;101986.81;5053939;28;20447;-48
2024/01/28 03:54:59;;;;;;;0.20;0.10;;;;;;;-2.23;93.56;101995.53;5042726;28;20451;-49
2024/01/28 03:57:25;;;;;;;0.20;0.10;;;;;;;-2.21;94.02;101990.41;5033508;28;20550;-49
2024/01/28 03:59:51;;;;;;;0.20;0.10;;;;;;;-2.22;93.17;101992.09;5044946;28;20891;-49
2024/01/28 04:02:18;;;;;;;0.20;0.10;;;;;;;-2.35;93.33;101986.19;5053310;28;20447;-48
2024/01/28 04:04:45;;;;;;;0.20;0.10;;;;;;;-2.35;93.24;101987.09;5041869;28;20498;-49
2024/01/28 04:07:11;;;;;;;0.20;0.10;;;;;;;-2.35;92.89;101981.88;5033885;28;20480;-49
2024/01/28 04:09:38;;;;;;;0.20;0.10;;;;;;;-2.46;93.21;101980.47;5033637;28;20459;-49
2024/01/28 04:12:05;;;;;;;0.20;0.10;;;;;;;-2.30;93.50;101976.94;5051653;28;20440;-49
2024/01/28 04:14:31;;;;;;;0.20;0.10;;;;;;;-2.38;93.29;101973.94;5045221;28;20935;-49
2024/01/28 04:16:58;;;;;;;0.20;0.10;;;;;;;-2.33;93.42;101972.47;5047801;28;20566;-49
2024/01/28 04:19:24;;;;;;;0.20;0.10;;;;;;;-2.43;93.44;101975.41;5033525;28;20482;-49
2024/01/28 04:21:51;;;;;;;0.20;0.10;;;;;;;-2.43;93.57;101973.72;5046362;28;20458;-49
2024/01/28 04:24:17;;;;;;;0.20;0.10;;;;;;;-2.39;93.92;101974.75;5046910;28;20578;-47
2024/01/28 04:26:44;;;;;;;0.20;0.10;;;;;;;-2.28;94.16;101978.78;5047861;28;20525;-47
2024/01/28 04:29:10;;;;;;;0.20;0.10;;;;;;;-2.21;94.47;101973.06;5046601;28;20451;-47
2024/01/28 04:31:42;;;;;;;0.20;0.10;;;;;;;-2.34;95.40;101956.75;5039894;28;20446;-48
2024/01/28 04:34:08;;;;;;;0.20;0.10;;;;;;;-2.24;94.76;101957.28;5039020;28;21027;-47
2024/01/28 04:36:35;;;;;;;0.20;0.10;;;;;;;-2.22;94.24;101971.28;5052972;28;20581;-47
2024/01/28 04:39:02;;;;;;;0.20;0.10;;;;;;;-2.30;94.11;101969.13;5040355;28;20917;-47
2024/01/28 04:41:29;;;;;;;0.20;0.10;;;;;;;-2.19;93.73;101979.25;5058358;28;20828;-48
2024/01/28 04:43:55;;;;;;;0.20;0.10;;;;;;;-2.30;93.74;101988.25;5047286;28;20486;-47
2024/01/28 04:46:22;;;;;;;0.20;0.10;;;;;;;-2.31;93.85;101977.75;5052878;28;20474;-49
2024/01/28 04:48:48;;;;;;;0.20;0.10;;;;;;;-2.31;94.02;101972.53;5039587;28;20905;-47
2024/01/28 04:51:15;;;;;;;0.20;0.10;;;;;;;-2.39;93.96;101967.81;5053060;28;20447;-47
2024/01/28 04:53:42;;;;;;;0.20;0.10;;;;;;;-2.11;93.16;101972.72;5038890;28;20447;-47
2024/01/28 04:56:11;;;;;;;0.20;0.10;;;;;;;-2.30;93.27;101961.31;5052152;28;21062;-46
2024/01/28 04:58:37;;;;;;;0.20;0.20;;;;;;;-2.54;94.87;101960.97;5038635;28;20877;-46
2024/01/28 05:01:04;;;;;;;0.20;0.10;;;;;;;-2.26;95.87;101966.75;5052735;28;20541;-48
2024/01/28 05:03:31;;;;;;;0.20;0.10;;;;;;;-2.13;95.83;101961.31;5052226;28;20501;-48
2024/01/28 05:05:59;;;;;;;0.20;0.10;;;;;;;-2.10;94.65;101964.06;5044270;28;20988;-47
2024/01/28 05:08:25;;;;;;;0.20;0.10;;;;;;;-2.24;94.22;101959.00;5047847;28;20951;-48
2024/01/28 05:10:52;;;;;;;0.20;0.10;;;;;;;-2.16;94.97;101963.78;5044144;28;20458;-47
2024/01/28 05:13:19;;;;;;;0.20;0.10;;;;;;;-2.22;94.20;101959.97;5034837;28;21017;-48
2024/01/28 05:15:46;;;;;;;0.20;0.10;;;;;;;-2.38;94.28;101960.91;5043773;28;21046;-47
2024/01/28 05:18:12;;;;;;;3.53;3.33;;;;;;;-2.39;94.19;101961.72;5035292;28;20459;-48
2024/01/28 05:20:39;;;;;;;0.20;0.10;;;;;;;-2.34;94.29;101968.06;5052547;28;20458;-48
2024/01/28 05:23:06;;;;;;;0.20;0.10;;;;;;;-2.31;93.87;101962.13;5038264;28;20448;-47
2024/01/28 05:25:32;;;;;;;0.20;0.10;;;;;;;-2.36;93.34;101963.59;5051678;28;20610;-48
2024/01/28 05:27:59;;;;;;;0.20;0.10;;;;;;;-2.23;92.98;101966.88;5020815;28;20451;-49
2024/01/28 05:30:26;;;;;;;0.20;0.10;;;;;;;-2.32;93.30;101969.06;5051997;28;20479;-48
2024/01/28 05:32:52;;;;;;;0.20;0.10;;;;;;;-2.50;92.87;101962.88;5038490;28;20935;-48
2024/01/28 05:35:19;;;;;;;0.20;0.10;;;;;;;-2.51;93.32;101955.91;5051994;28;20533;-49
2024/01/28 05:37:45;;;;;;;0.20;0.10;;;;;;;-2.46;93.73;101962.25;5020790;28;20557;-48
2024/01/28 05:40:12;;;;;;;0.20;0.10;;;;;;;-2.52;93.30;101959.31;5064923;28;20529;-47
2024/01/28 05:42:38;;;;;;;0.20;0.10;;;;;;;-2.64;93.87;101962.19;5044775;28;20451;-48
2024/01/28 05:45:06;;;;;;;0.20;0.20;;;;;;;-2.63;93.92;101957.88;5053976;28;20541;-49
2024/01/28 05:47:32;;;;;;;0.20;0.10;;;;;;;-2.50;94.12;101952.47;5049498;28;20491;-48
2024/01/28 05:49:59;;;;;;;0.20;0.10;;;;;;;-2.50;93.98;101949.88;5044049;28;20454;-48
2024/01/28 05:52:26;;;;;;;0.20;0.10;;;;;;;-2.47;93.83;101943.13;5049840;28;20451;-47
2024/01/28 05:54:52;;;;;;;0.20;0.10;;;;;;;-2.49;93.58;101947.34;5044040;28;20446;-47
2024/01/28 05:57:19;;;;;;;0.20;0.10;;;;;;;-2.23;92.91;101952.97;5048551;28;20476;-48
2024/01/28 05:59:46;;;;;;;0.20;0.10;;;;;;;-2.38;92.83;101958.31;5043175;28;20500;-48
2024/01/28 06:02:12;;;;;;;0.20;0.10;;;;;;;-2.35;92.95;101947.16;5048984;28;20627;-48
2024/01/28 06:04:40;;;;;;;0.20;0.10;;;;;;;-2.46;92.96;101946.63;5043414;28;20597;-48
2024/01/28 06:07:06;;;;;;;0.20;0.10;;;;;;;-2.57;93.18;101945.19;5052737;28;20476;-48
2024/01/28 06:09:33;;;;;;;0.20;0.10;;;;;;;-2.62;92.94;101936.22;5047558;28;20873;-47
2024/01/28 06:12:00;;;;;;;0.20;0.10;;;;;;;-2.71;94.14;101934.97;5052445;28;20936;-48
2024/01/28 06:14:27;;;;;;;0.20;0.10;;;;;;;-2.63;93.85;101937.94;5050917;28;20974;-47
2024/01/28 06:16:54;;;;;;;0.20;0.10;;;;;;;-2.64;93.87;101935.25;5043238;28;20587;-49
2024/01/28 06:19:20;;;;;;;0.20;0.10;;;;;;;-2.73;93.50;101940.91;5057033;28;20446;-49
2024/01/28 06:21:47;;;;;;;0.20;0.10;;;;;;;-2.55;93.57;101935.75;5056315;28;20545;-47
2024/01/28 06:24:13;;;;;;;0.20;0.10;;;;;;;-2.51;93.78;101942.88;5052147;28;20566;-47
2024/01/28 06:26:40;;;;;;;0.20;0.10;;;;;;;-2.18;93.20;101942.00;5050613;28;20471;-49
2024/01/28 06:29:07;;;;;;;0.20;0.10;;;;;;;-2.53;92.16;101940.22;5048251;28;20534;-48
2024/01/28 06:31:34;;;;;;;0.20;0.10;;;;;;;-2.54;93.18;101942.72;5050901;28;20444;-49
2024/01/28 06:34:00;;;;;;;0.20;0.10;;;;;;;-2.59;93.08;101941.63;5030489;28;21007;-48
2024/01/28 06:36:27;;;;;;;0.20;0.10;;;;;;;-2.54;93.41;101935.81;5050736;28;20478;-48
2024/01/28 06:38:54;;;;;;;0.20;0.10;;;;;;;-2.70;93.10;101941.97;5053741;28;20450;-49
2024/01/28 06:41:21;;;;;;;0.20;0.10;;;;;;;-2.82;93.40;101940.44;5062777;28;20443;-47
2024/01/28 06:43:47;;;;;;;0.20;0.10;;;;;;;-2.74;93.76;101942.63;5042826;28;20530;-47
2024/01/28 06:46:16;;;;;;;0.20;0.10;;;;;;;-2.71;93.65;101941.88;5058498;28;20485;-49
2024/01/28 06:48:43;;;;;;;0.20;0.10;;;;;;;-2.80;92.99;101939.69;5049125;28;20478;-49
2024/01/28 06:51:10;;;;;;;0.20;0.10;;;;;;;-2.77;92.92;101945.03;5061814;28;20533;-49
2024/01/28 06:53:37;;;;;;;0.20;0.10;;;;;;;-2.69;93.72;101948.94;5045668;28;21009;-48
2024/01/28 06:56:03;;;;;;;0.20;0.10;;;;;;;-2.84;93.71;101949.88;5051363;28;20466;-48
2024/01/28 06:58:30;;;;;;;0.20;0.10;;;;;;;-2.77;93.71;101954.56;5061627;28;20497;-50
2024/01/28 07:00:56;;;;;;;0.20;0.10;;;;;;;-2.71;93.78;101947.97;5043839;28;20961;-48
2024/01/28 07:03:24;;;;;;;0.20;0.10;;;;;;;-2.71;94.02;101950.56;5054005;28;20458;-47
2024/01/28 07:05:51;;;;;;;0.20;0.10;;;;;;;-2.82;93.19;101954.31;5044063;28;20863;-48
2024/01/28 07:08:17;;;;;;;0.20;0.10;;;;;;;-2.78;93.76;101964.06;5054108;28;20508;-47
2024/01/28 07:10:44;;;;;;;0.20;0.10;;;;;;;-2.70;93.83;101951.47;5042990;28;20820;-48
2024/01/28 07:13:10;;;;;;;0.20;0.10;;;;;;;-2.71;93.77;101940.16;5053472;28;20542;-48
2024/01/28 07:15:37;;;;;;;0.20;0.10;;;;;;;-2.62;94.21;101936.22;5029572;28;20469;-48
2024/01/28 07:18:04;;;;;;;0.20;0.10;;;;;;;-2.60;93.68;101939.84;5040260;28;20563;-49
2024/01/28 07:20:31;;;;;;;0.20;0.10;;;;;;;-2.59;93.82;101939.00;5054195;28;20445;-49
2024/01/28 07:22:57;;;;;;;0.20;0.10;;;;;;;-2.52;93.40;101942.00;5041370;28;20887;-48
2024/01/28 07:25:24;;;;;;;0.20;0.10;;;;;;;-2.82;93.06;101917.91;5055055;28;20568;-48
2024/01/28 07:27:52;;;;;;;0.20;0.10;;;;;;;-2.67;92.91;101950.72;5041555;28;20458;-48
2024/01/28 07:30:18;;;;;;;0.20;0.10;;;;;;;-2.59;93.63;101946.81;5055808;28;20442;-50
2024/01/28 07:32:45;;;;;;;0.20;0.10;;;;;;;-2.40;94.60;101949.53;5053047;28;20500;-48
2024/01/28 07:35:11;;;;;;;0.20;0.10;;;;;;;-2.38;94.20;101950.50;5034992;28;20870;-48
2024/01/28 07:37:38;;;;;;;0.20;0.10;;;;;;;-2.34;93.95;101959.34;5050077;28;20566;-48
2024/01/28 07:40:05;;;;;;;0.20;0.10;;;;;;;-2.29;93.87;101956.19;5063176;28;20549;-48
2024/01/28 07:42:35;;;;;;;0.20;0.10;;;;;;;-2.47;93.51;101950.94;5043801;28;20550;-49
2024/01/28 07:45:02;;;;;;;0.20;0.10;;;;;;;-2.43;93.67;101952.88;5053840;28;20577;-48
2024/01/28 07:47:29;;;;;;;0.20;0.10;;;;;;;-2.34;94.62;101949.81;5050103;28;20574;-50
2024/01/28 07:49:55;;;;;;;0.20;0.10;;;;;;;-2.22;95.82;101954.75;5043670;28;20538;-48
2024/01/28 07:52:22;;;;;;;0.20;0.10;;;;;;;-2.17;95.53;101950.69;5050454;28;20452;-48
2024/01/28 07:54:48;;;;;;;0.20;0.10;;;;;;;-2.02;95.36;101940.13;5026051;28;20534;-48
2024/01/28 07:57:15;;;;;;;0.20;0.10;;;;;;;-1.85;94.49;101939.22;5049986;28;20479;-49
2024/01/28 07:59:41;;;;;;;0.20;0.10;;;;;;;-1.79;94.64;101943.00;5043774;28;20454;-48
2024/01/28 08:02:08;;;;;;;0.20;0.10;;;;;;;-1.68;94.43;101938.31;5050214;28;20502;-48
2024/01/28 08:04:34;;;;;;;0.20;0.10;;;;;;;-1.64;94.90;101935.06;5042711;28;21006;-48
2024/01/28 08:07:01;;;;;;;0.20;0.10;;;;;;;-1.62;94.93;101948.16;5043519;28;20479;-48
2024/01/28 08:09:31;;;;;;;0.20;0.10;;;;;;;-1.44;94.75;101950.72;5043990;28;20447;-48
2024/01/28 08:11:58;;;;;;;0.20;0.10;;;;;;;-1.33;94.74;101946.91;5049679;28;20947;-48
2024/01/28 08:14:27;;;;;;;0.20;0.10;;;;;;;-1.23;95.02;101952.63;5044144;28;20814;-48
2024/01/28 08:16:55;;;;;;;0.20;0.10;;;;;;;-1.24;94.79;101949.91;5040540;28;20479;-49
2024/01/28 08:19:21;;;;;;;0.20;0.10;;;;;;;-1.13;94.49;101950.41;5053724;28;20484;-47
2024/01/28 08:21:48;;;;;;;0.20;0.10;;;;;;;-0.92;94.37;101954.00;5050322;28;20443;-48
2024/01/28 08:24:14;;;;;;;0.20;0.10;;;;;;;-0.98;95.84;101951.09;5042216;28;20444;-49
2024/01/28 08:26:41;;;;;;;0.20;0.10;;;;;;;-0.85;96.24;101956.03;5051979;28;20559;-48
2024/01/28 08:29:08;;;;;;;0.20;0.10;;;;;;;-0.78;96.99;101949.38;5042020;28;20486;-48
2024/01/28 08:31:34;;;;;;;0.20;0.10;;;;;;;-0.76;97.67;101942.50;5034212;28;20537;-49
2024/01/28 08:34:01;;;;;;;0.20;0.10;;;;;;;-0.62;97.33;101944.91;5053982;28;20482;-47
2024/01/28 08:36:27;;;;;;;0.20;0.10;;;;;;;-0.41;97.93;101938.78;5017816;28;20478;-48
2024/01/28 08:38:54;;;;;;;0.20;0.10;;;;;;;-0.33;97.12;101938.31;5044641;28;20462;-49
2024/01/28 08:41:21;;;;;;;0.20;0.10;;;;;;;-0.20;96.60;101928.38;5060322;28;20458;-48
2024/01/28 08:43:48;;;;;;;0.20;0.10;;;;;;;-0.13;97.08;101930.41;5046094;28;20479;-48
2024/01/28 08:46:16;;;;;;;0.20;0.10;;;;;;;-0.08;96.38;101932.38;5052523;28;20585;-49
2024/01/28 08:48:42;;;;;;;0.20;0.10;;;;;;;-0.09;96.51;101945.38;5039954;28;20906;-48
2024/01/28 08:51:09;;;;;;;0.20;0.10;;;;;;;-0.03;96.11;101948.25;5039477;28;20465;-49
2024/01/28 08:53:36;;;;;;;0.20;0.10;;;;;;;0.04;95.99;101952.91;5052679;28;21000;-48
2024/01/28 08:56:03;;;;;;;0.20;0.10;;;;;;;0.20;96.97;101952.69;5039852;28;20478;-48
2024/01/28 08:58:34;;;;;;;0.20;0.10;;;;;;;0.30;96.78;101953.94;5038779;28;20456;-49
2024/01/28 09:01:00;;;;;;;0.20;0.10;;;;;;;0.42;96.85;101951.81;5040104;28;20529;-49
2024/01/28 09:03:27;;;;;;;0.20;0.10;;;;;;;0.32;98.01;101961.84;5041105;28;20444;-49
2024/01/28 09:05:53;;;;;;;0.20;0.10;;;;;;;0.37;97.86;101961.19;5054406;28;20494;-58
2024/01/28 09:08:20;;;;;;;0.20;0.10;;;;;;;0.30;97.67;101961.78;5048076;28;20465;-48
2024/01/28 09:10:46;;;;;;;0.30;0.30;;;;;;;0.50;98.18;101965.19;5050674;28;20519;-48
2024/01/28 09:13:13;;;;;;;0.20;0.10;;;;;;;1.26;96.71;101959.34;5055535;28;20450;-49
2024/01/28 09:15:39;;;;;;;0.20;0.10;;;;;;;1.10;95.09;101955.28;5048179;28;20531;-48
2024/01/28 09:18:06;;;;;;;0.93;0.93;;;;;;;1.06;94.81;101959.50;5052467;28;20450;-49
2024/01/28 09:20:33;;;;;;;0.20;0.10;;;;;;;1.14;96.89;101962.41;5051009;28;20479;-49
2024/01/28 09:22:59;;;;;;;23.63;16.33;;;;;;;1.17;96.03;101958.16;5057469;28;20954;-51
2024/01/28 09:25:28;;;;;;;0.20;0.10;;;;;;;1.26;96.33;101955.00;5063877;28;20494;-49
2024/01/28 09:27:55;;;;;;;0.20;0.10;;;;;;;1.41;96.17;101952.03;5067597;28;20459;-50
2024/01/28 09:30:22;;;;;;;0.20;0.10;;;;;;;1.25;96.57;101961.06;5063590;28;20459;-50
2024/01/28 09:32:48;;;;;;;0.20;0.10;;;;;;;1.31;97.05;101948.19;5067263;28;20451;-49
2024/01/28 09:35:15;;;;;;;0.20;0.10;;;;;;;1.53;97.01;101941.97;5072885;28;20443;-50
2024/01/28 09:37:41;;;;;;;0.20;0.10;;;;;;;1.67;96.45;101943.34;5059949;28;20498;-50
2024/01/28 09:40:11;;;;;;;0.20;0.10;;;;;;;1.65;96.10;101941.53;5080526;28;20437;-49
2024/01/28 09:42:56;;;;;;;0.20;0.10;;;;;;;1.78;97.07;101949.84;5058559;28;20483;-49
2024/01/28 09:45:24;;;;;;;0.20;0.10;;;;;;;1.84;96.41;101949.16;5046040;28;20492;-49
2024/01/28 09:47:51;;;;;;;0.20;0.10;;;;;;;1.93;95.84;101954.72;5046661;28;20463;-48
2024/01/28 09:50:19;;;;;;;0.20;0.10;;;;;;;1.95;94.89;101947.78;5047645;28;20818;-48
2024/01/28 09:52:46;;;;;;;0.20;0.10;;;;;;;2.35;94.70;101936.84;5053858;28;20451;-49
2024/01/28 09:55:13;;;;;;;0.20;0.10;;;;;;;2.40;93.64;101938.72;5039689;28;20526;-49
2024/01/28 09:57:40;;;;;;;0.20;0.10;;;;;;;2.29;93.67;101930.50;5052658;28;20565;-49
2024/01/28 10:00:07;;;;;;;0.20;0.10;;;;;;;2.44;94.17;101944.09;5039154;28;20458;-50
2024/01/28 10:02:35;;;;;;;0.20;0.10;;;;;;;2.41;94.53;101948.38;5051907;28;20458;-49
2024/01/28 10:05:03;;;;;;;0.20;0.10;;;;;;;2.51;93.77;101948.72;5038773;28;20487;-48
2024/01/28 10:07:40;;;;;;;0.20;0.10;;;;;;;2.86;93.40;101946.25;5053311;28;20922;-51
2024/01/28 10:10:07;;;;;;;0.20;0.20;;;;;;;2.90;92.74;101946.41;5051069;28;20944;-51
2024/01/28 10:12:33;;;;;;;0.20;0.10;;;;;;;2.81;93.28;101943.50;5042160;28;20477;-51
2024/01/28 10:15:00;;;;;;;0.20;0.10;;;;;;;2.78;93.63;101946.03;5050124;28;20856;-51
2024/01/28 10:17:26;;;;;;;1.33;1.33;;;;;;;3.08;93.20;101942.50;5042150;28;20466;-49
2024/01/28 10:19:53;;;;;;;0.20;0.10;;;;;;;3.11;93.02;101937.34;5052546;28;20529;-49
2024/01/28 10:22:19;;;;;;;0.20;0.20;;;;;;;3.31;93.06;101940.53;5043903;28;20462;-49
2024/01/28 10:24:46;;;;;;;0.30;0.20;;;;;;;3.28;93.13;101936.06;5049910;28;20447;-49
2024/01/28 10:27:13;;;;;;;0.20;0.10;;;;;;;3.31;92.96;101930.03;5053280;28;20477;-49
2024/01/28 10:29:39;;;;;;;0.30;0.10;;;;;;;3.43;92.30;101927.75;5035036;28;20537;-49
2024/01/28 10:32:06;;;;;;;0.20;0.10;;;;;;;3.57;92.46;101926.38;5031988;28;20447;-49
2024/01/28 10:34:32;;;;;;;0.20;0.10;;;;;;;3.60;91.70;101921.19;5048514;28;20482;-49
2024/01/28 10:37:01;;;;;;;0.20;0.20;;;;;;;3.85;91.79;101922.69;5048866;28;20474;-50
2024/01/28 10:39:34;;;;;;;0.20;0.10;;;;;;;4.01;91.19;101921.34;5048749;28;20438;-49
2024/01/28 10:42:04;;;;;;;0.20;0.13;;;;;;;4.09;90.50;101915.38;5038496;28;20451;-49
2024/01/28 10:44:37;;;;;;;0.20;0.10;;;;;;;3.94;91.41;101917.66;5048993;28;20977;-49
2024/01/28 10:47:08;;;;;;;1.90;1.90;;;;;;;4.15;91.14;101912.91;5051878;28;20558;-49
2024/01/28 10:49:37;;;;;;;0.20;0.10;;;;;;;4.17;90.89;101912.94;5034478;28;20504;-50
2024/01/28 10:52:06;;;;;;;0.20;0.10;;;;;;;4.16;91.23;101914.69;5048621;28;20491;-49
2024/01/28 10:54:33;;;;;;;0.20;0.10;;;;;;;4.25;91.05;101907.84;5048329;28;20455;-49
2024/01/28 10:57:02;;;;;;;0.20;0.17;;;;;;;4.31;91.23;101901.00;5018500;28;20474;-49
2024/01/28 10:59:29;;;;;;;0.20;0.10;;;;;;;4.50;90.71;101891.75;5041510;28;20945;-49
2024/01/28 11:01:56;;;;;;;0.87;0.87;;;;;;;4.35;90.85;101894.94;5048892;28;20457;-50
2024/01/28 11:04:23;;;;;;;0.20;0.10;;;;;;;4.49;90.34;101891.72;5025764;28;20815;-50
2024/01/28 11:06:50;;;;;;;0.23;0.17;;;;;;;4.41;90.94;101891.56;5053057;28;20925;-49
2024/01/28 11:09:16;;;;;;;0.30;0.20;;;;;;;4.60;90.60;101892.84;5043477;28;20443;-51
2024/01/28 11:11:43;;;;;;;0.23;0.20;;;;;;;4.62;90.14;101886.75;5053802;28;20497;-50
2024/01/28 11:14:10;;;;;;;0.20;0.20;;;;;;;4.64;89.26;101881.53;5036927;28;20529;-50
2024/01/28 11:16:38;;;;;;;0.20;0.20;;;;;;;4.83;89.57;101873.16;5042227;28;20545;-51
2024/01/28 11:19:06;;;;;;;0.20;0.10;;;;;;;4.82;89.17;101866.13;5051869;28;20520;-49
2024/01/28 11:21:34;;;;;;;0.20;0.20;;;;;;;4.57;89.82;101864.72;5054850;28;20455;-51
2024/01/28 11:24:11;;;;;;;0.30;0.20;;;;;;;4.76;88.80;101858.09;5027946;28;20847;-50
2024/01/28 11:26:38;;;;;;;0.30;0.13;;;;;;;4.96;88.52;101847.97;5038667;28;20540;-49
2024/01/28 11:29:10;;;;;;;0.20;0.13;;;;;;;5.00;88.28;101845.41;5054648;28;20454;-49